sensor_id;sensor_type;location;lat;lon;timestamp;P1;durP1;ratioP1;P2;durP2;ratioP2
60722;SDS011;46574;52.818;6.516;2022-12-07T00:00:28;4.85;;;2.10;;
60722;SDS011;46574;52.818;6.516;2022-12-07T00:02:53;6.60;;;2.00;;
60722;SDS011;46574;52.818;6.516;2022-12-07T00:05:19;5.78;;;2.10;;
60722;SDS011;46574;52.818;6.516;2022-12-07T00:07:44;3.75;;;1.63;;
60722;SDS011;46574;52.818;6.516;2022-12-07T00:10:10;6.20;;;1.73;;
60722;SDS011;46574;52.818;6.516;2022-12-07T00:12:35;4.85;;;1.77;;
60722;SDS011;46574;52.818;6.516;2022-12-07T00:15:01;7.13;;;2.10;;
60722;SDS011;46574;52.818;6.516;2022-12-07T00:17:27;9.35;;;2.05;;
60722;SDS011;46574;52.818;6.516;2022-12-07T00:19:53;5.05;;;1.77;;
60722;SDS011;46574;52.818;6.516;2022-12-07T00:22:18;5.60;;;1.60;;
60722;SDS011;46574;52.818;6.516;2022-12-07T00:24:44;5.82;;;1.70;;
60722;SDS011;46574;52.818;6.516;2022-12-07T00:27:09;6.78;;;1.73;;
60722;SDS011;46574;52.818;6.516;2022-12-07T00:29:35;6.47;;;3.65;;
60722;SDS011;46574;52.818;6.516;2022-12-07T00:32:02;8.68;;;1.95;;
60722;SDS011;46574;52.818;6.516;2022-12-07T00:34:28;8.52;;;1.95;;
60722;SDS011;46574;52.818;6.516;2022-12-07T00:36:54;9.52;;;2.40;;
60722;SDS011;46574;52.818;6.516;2022-12-07T00:39:19;9.35;;;1.92;;
60722;SDS011;46574;52.818;6.516;2022-12-07T00:41:45;7.90;;;1.77;;
60722;SDS011;46574;52.818;6.516;2022-12-07T00:44:11;8.20;;;2.67;;
60722;SDS011;46574;52.818;6.516;2022-12-07T00:46:36;5.32;;;2.03;;
60722;SDS011;46574;52.818;6.516;2022-12-07T00:49:02;6.10;;;1.73;;
60722;SDS011;46574;52.818;6.516;2022-12-07T00:51:28;6.82;;;2.08;;
60722;SDS011;46574;52.818;6.516;2022-12-07T00:53:54;5.47;;;1.85;;
60722;SDS011;46574;52.818;6.516;2022-12-07T00:56:21;7.75;;;2.05;;
60722;SDS011;46574;52.818;6.516;2022-12-07T00:58:52;7.43;;;1.95;;
60722;SDS011;46574;52.818;6.516;2022-12-07T01:01:19;4.93;;;1.60;;
60722;SDS011;46574;52.818;6.516;2022-12-07T01:03:44;7.07;;;1.65;;
60722;SDS011;46574;52.818;6.516;2022-12-07T01:06:13;3.72;;;1.52;;
60722;SDS011;46574;52.818;6.516;2022-12-07T01:08:40;7.35;;;1.60;;
60722;SDS011;46574;52.818;6.516;2022-12-07T01:11:07;4.78;;;1.70;;
60722;SDS011;46574;52.818;6.516;2022-12-07T01:13:34;9.20;;;2.10;;
60722;SDS011;46574;52.818;6.516;2022-12-07T01:16:01;6.07;;;1.73;;
60722;SDS011;46574;52.818;6.516;2022-12-07T01:18:30;4.03;;;1.73;;
60722;SDS011;46574;52.818;6.516;2022-12-07T01:21:01;7.75;;;2.17;;
60722;SDS011;46574;52.818;6.516;2022-12-07T01:23:29;6.57;;;1.75;;
60722;SDS011;46574;52.818;6.516;2022-12-07T01:25:56;6.10;;;1.55;;
60722;SDS011;46574;52.818;6.516;2022-12-07T01:28:22;4.90;;;1.58;;
60722;SDS011;46574;52.818;6.516;2022-12-07T01:30:55;5.45;;;1.88;;
60722;SDS011;46574;52.818;6.516;2022-12-07T01:33:26;6.00;;;1.73;;
60722;SDS011;46574;52.818;6.516;2022-12-07T01:35:53;6.45;;;1.35;;
60722;SDS011;46574;52.818;6.516;2022-12-07T01:38:19;6.55;;;1.70;;
60722;SDS011;46574;52.818;6.516;2022-12-07T01:40:45;4.60;;;1.30;;
60722;SDS011;46574;52.818;6.516;2022-12-07T01:43:19;5.15;;;1.40;;
60722;SDS011;46574;52.818;6.516;2022-12-07T01:45:46;5.00;;;1.70;;
60722;SDS011;46574;52.818;6.516;2022-12-07T01:48:12;5.22;;;1.70;;
60722;SDS011;46574;52.818;6.516;2022-12-07T01:50:41;5.90;;;1.60;;
60722;SDS011;46574;52.818;6.516;2022-12-07T01:53:10;3.28;;;1.65;;
60722;SDS011;46574;52.818;6.516;2022-12-07T01:55:37;6.10;;;1.92;;
60722;SDS011;46574;52.818;6.516;2022-12-07T01:58:07;9.27;;;3.03;;
60722;SDS011;46574;52.818;6.516;2022-12-07T02:00:33;4.97;;;2.55;;
60722;SDS011;46574;52.818;6.516;2022-12-07T02:03:07;7.45;;;3.67;;
60722;SDS011;46574;52.818;6.516;2022-12-07T02:05:43;6.47;;;2.50;;
60722;SDS011;46574;52.818;6.516;2022-12-07T02:08:11;8.75;;;2.40;;
60722;SDS011;46574;52.818;6.516;2022-12-07T02:10:38;6.80;;;1.90;;
60722;SDS011;46574;52.818;6.516;2022-12-07T02:13:06;7.00;;;1.95;;
60722;SDS011;46574;52.818;6.516;2022-12-07T02:21:21;5.20;;;1.50;;
60722;SDS011;46574;52.818;6.516;2022-12-07T02:24:14;5.75;;;1.75;;
60722;SDS011;46574;52.818;6.516;2022-12-07T02:27:19;3.80;;;1.50;;
60722;SDS011;46574;52.818;6.516;2022-12-07T02:30:00;3.95;;;1.42;;
60722;SDS011;46574;52.818;6.516;2022-12-07T02:35:27;8.55;;;1.50;;
60722;SDS011;46574;52.818;6.516;2022-12-07T02:38:16;3.42;;;1.20;;
60722;SDS011;46574;52.818;6.516;2022-12-07T02:40:52;4.05;;;1.40;;
60722;SDS011;46574;52.818;6.516;2022-12-07T02:43:36;5.78;;;1.33;;
60722;SDS011;46574;52.818;6.516;2022-12-07T02:46:08;5.72;;;1.42;;
60722;SDS011;46574;52.818;6.516;2022-12-07T02:48:39;10.20;;;1.38;;
60722;SDS011;46574;52.818;6.516;2022-12-07T02:51:24;6.47;;;1.40;;
60722;SDS011;46574;52.818;6.516;2022-12-07T02:53:51;4.82;;;1.55;;
60722;SDS011;46574;52.818;6.516;2022-12-07T02:58:58;7.35;;;1.45;;
60722;SDS011;46574;52.818;6.516;2022-12-07T03:07:11;5.38;;;1.05;;
60722;SDS011;46574;52.818;6.516;2022-12-07T03:09:50;8.25;;;1.38;;
60722;SDS011;46574;52.818;6.516;2022-12-07T03:12:35;6.13;;;1.55;;
60722;SDS011;46574;52.818;6.516;2022-12-07T03:15:10;7.63;;;1.55;;
60722;SDS011;46574;52.818;6.516;2022-12-07T03:17:44;5.60;;;1.40;;
60722;SDS011;46574;52.818;6.516;2022-12-07T03:20:11;7.45;;;1.20;;
60722;SDS011;46574;52.818;6.516;2022-12-07T03:22:40;7.10;;;1.33;;
60722;SDS011;46574;52.818;6.516;2022-12-07T03:25:08;4.70;;;1.10;;
60722;SDS011;46574;52.818;6.516;2022-12-07T03:27:43;6.55;;;1.33;;
60722;SDS011;46574;52.818;6.516;2022-12-07T03:32:47;6.78;;;1.60;;
60722;SDS011;46574;52.818;6.516;2022-12-07T03:35:24;6.30;;;1.48;;
60722;SDS011;46574;52.818;6.516;2022-12-07T03:40:45;7.03;;;1.60;;
60722;SDS011;46574;52.818;6.516;2022-12-07T03:43:15;4.65;;;1.10;;
60722;SDS011;46574;52.818;6.516;2022-12-07T03:45:43;5.00;;;1.50;;
60722;SDS011;46574;52.818;6.516;2022-12-07T03:48:22;6.68;;;1.38;;
60722;SDS011;46574;52.818;6.516;2022-12-07T03:51:03;3.75;;;1.30;;
60722;SDS011;46574;52.818;6.516;2022-12-07T03:56:30;2.38;;;1.25;;
60722;SDS011;46574;52.818;6.516;2022-12-07T03:58:57;4.88;;;1.13;;
60722;SDS011;46574;52.818;6.516;2022-12-07T04:01:24;4.10;;;1.33;;
60722;SDS011;46574;52.818;6.516;2022-12-07T04:03:50;5.97;;;1.50;;
60722;SDS011;46574;52.818;6.516;2022-12-07T04:06:16;3.35;;;1.20;;
60722;SDS011;46574;52.818;6.516;2022-12-07T04:08:41;4.03;;;1.10;;
60722;SDS011;46574;52.818;6.516;2022-12-07T04:11:07;3.33;;;1.02;;
60722;SDS011;46574;52.818;6.516;2022-12-07T04:13:33;4.30;;;0.98;;
60722;SDS011;46574;52.818;6.516;2022-12-07T04:16:18;4.97;;;1.10;;
60722;SDS011;46574;52.818;6.516;2022-12-07T04:18:44;6.50;;;1.30;;
60722;SDS011;46574;52.818;6.516;2022-12-07T04:21:10;4.93;;;1.20;;
60722;SDS011;46574;52.818;6.516;2022-12-07T04:23:35;5.43;;;1.05;;
60722;SDS011;46574;52.818;6.516;2022-12-07T04:26:01;5.90;;;1.38;;
60722;SDS011;46574;52.818;6.516;2022-12-07T04:28:27;4.70;;;1.88;;
60722;SDS011;46574;52.818;6.516;2022-12-07T04:30:52;4.45;;;1.33;;
60722;SDS011;46574;52.818;6.516;2022-12-07T04:33:18;3.60;;;1.10;;
60722;SDS011;46574;52.818;6.516;2022-12-07T04:35:43;4.70;;;1.27;;
60722;SDS011;46574;52.818;6.516;2022-12-07T04:38:09;5.28;;;1.30;;
60722;SDS011;46574;52.818;6.516;2022-12-07T04:40:34;3.50;;;1.08;;
60722;SDS011;46574;52.818;6.516;2022-12-07T04:43:00;6.22;;;1.20;;
60722;SDS011;46574;52.818;6.516;2022-12-07T04:45:26;3.70;;;1.10;;
60722;SDS011;46574;52.818;6.516;2022-12-07T04:47:51;4.15;;;1.30;;
60722;SDS011;46574;52.818;6.516;2022-12-07T04:50:17;5.00;;;1.17;;
60722;SDS011;46574;52.818;6.516;2022-12-07T04:52:43;6.45;;;1.13;;
60722;SDS011;46574;52.818;6.516;2022-12-07T04:55:08;10.00;;;1.42;;
60722;SDS011;46574;52.818;6.516;2022-12-07T04:57:34;7.18;;;1.38;;
60722;SDS011;46574;52.818;6.516;2022-12-07T05:00:00;5.65;;;1.05;;
60722;SDS011;46574;52.818;6.516;2022-12-07T05:02:25;5.00;;;1.55;;
60722;SDS011;46574;52.818;6.516;2022-12-07T05:04:51;5.50;;;1.10;;
60722;SDS011;46574;52.818;6.516;2022-12-07T05:07:16;3.95;;;0.90;;
60722;SDS011;46574;52.818;6.516;2022-12-07T05:09:42;8.30;;;1.83;;
60722;SDS011;46574;52.818;6.516;2022-12-07T05:12:08;4.38;;;1.17;;
60722;SDS011;46574;52.818;6.516;2022-12-07T05:14:33;7.82;;;1.52;;
60722;SDS011;46574;52.818;6.516;2022-12-07T05:16:59;4.03;;;1.40;;
60722;SDS011;46574;52.818;6.516;2022-12-07T05:19:24;5.30;;;1.20;;
60722;SDS011;46574;52.818;6.516;2022-12-07T05:21:51;6.07;;;1.60;;
60722;SDS011;46574;52.818;6.516;2022-12-07T05:24:17;4.72;;;1.30;;
60722;SDS011;46574;52.818;6.516;2022-12-07T05:26:43;4.57;;;1.33;;
60722;SDS011;46574;52.818;6.516;2022-12-07T05:29:10;7.25;;;1.60;;
60722;SDS011;46574;52.818;6.516;2022-12-07T05:31:37;5.70;;;1.10;;
60722;SDS011;46574;52.818;6.516;2022-12-07T05:34:03;8.05;;;1.20;;
60722;SDS011;46574;52.818;6.516;2022-12-07T05:36:28;6.75;;;1.52;;
60722;SDS011;46574;52.818;6.516;2022-12-07T05:38:56;4.50;;;0.82;;
60722;SDS011;46574;52.818;6.516;2022-12-07T05:41:22;4.20;;;0.88;;
60722;SDS011;46574;52.818;6.516;2022-12-07T05:44:07;4.95;;;1.10;;
60722;SDS011;46574;52.818;6.516;2022-12-07T05:46:32;6.43;;;1.10;;
60722;SDS011;46574;52.818;6.516;2022-12-07T05:48:59;4.63;;;1.20;;
60722;SDS011;46574;52.818;6.516;2022-12-07T05:51:25;5.20;;;1.30;;
60722;SDS011;46574;52.818;6.516;2022-12-07T05:53:50;5.47;;;1.05;;
60722;SDS011;46574;52.818;6.516;2022-12-07T05:56:16;4.95;;;1.27;;
60722;SDS011;46574;52.818;6.516;2022-12-07T05:58:42;6.25;;;1.27;;
60722;SDS011;46574;52.818;6.516;2022-12-07T06:01:26;5.30;;;1.23;;
60722;SDS011;46574;52.818;6.516;2022-12-07T06:03:51;3.45;;;0.85;;
60722;SDS011;46574;52.818;6.516;2022-12-07T06:06:17;2.88;;;0.75;;
60722;SDS011;46574;52.818;6.516;2022-12-07T06:08:43;3.85;;;1.10;;
60722;SDS011;46574;52.818;6.516;2022-12-07T06:11:08;3.13;;;0.80;;
60722;SDS011;46574;52.818;6.516;2022-12-07T06:13:52;5.85;;;1.27;;
60722;SDS011;46574;52.818;6.516;2022-12-07T06:16:18;5.78;;;1.00;;
60722;SDS011;46574;52.818;6.516;2022-12-07T06:18:44;8.05;;;1.30;;
60722;SDS011;46574;52.818;6.516;2022-12-07T06:21:09;4.13;;;1.15;;
60722;SDS011;46574;52.818;6.516;2022-12-07T06:23:35;6.03;;;0.95;;
60722;SDS011;46574;52.818;6.516;2022-12-07T06:26:00;3.40;;;0.90;;
60722;SDS011;46574;52.818;6.516;2022-12-07T06:28:29;8.70;;;1.50;;
60722;SDS011;46574;52.818;6.516;2022-12-07T06:30:58;5.78;;;1.55;;
60722;SDS011;46574;52.818;6.516;2022-12-07T06:33:24;2.60;;;1.35;;
60722;SDS011;46574;52.818;6.516;2022-12-07T06:35:50;4.82;;;1.33;;
60722;SDS011;46574;52.818;6.516;2022-12-07T06:38:16;5.10;;;1.20;;
60722;SDS011;46574;52.818;6.516;2022-12-07T06:40:42;5.93;;;1.40;;
60722;SDS011;46574;52.818;6.516;2022-12-07T06:43:07;7.85;;;1.30;;
60722;SDS011;46574;52.818;6.516;2022-12-07T06:45:33;3.63;;;1.10;;
60722;SDS011;46574;52.818;6.516;2022-12-07T06:47:59;4.45;;;1.15;;
60722;SDS011;46574;52.818;6.516;2022-12-07T06:50:25;4.70;;;1.00;;
60722;SDS011;46574;52.818;6.516;2022-12-07T06:52:51;8.52;;;1.45;;
60722;SDS011;46574;52.818;6.516;2022-12-07T06:55:16;4.63;;;1.40;;
60722;SDS011;46574;52.818;6.516;2022-12-07T06:57:42;7.63;;;1.48;;
60722;SDS011;46574;52.818;6.516;2022-12-07T07:00:08;4.50;;;1.27;;
60722;SDS011;46574;52.818;6.516;2022-12-07T07:02:34;4.78;;;1.15;;
60722;SDS011;46574;52.818;6.516;2022-12-07T07:05:00;4.93;;;1.30;;
60722;SDS011;46574;52.818;6.516;2022-12-07T07:07:26;4.32;;;1.30;;
60722;SDS011;46574;52.818;6.516;2022-12-07T07:09:51;5.35;;;1.30;;
60722;SDS011;46574;52.818;6.516;2022-12-07T07:12:17;4.50;;;1.17;;
60722;SDS011;46574;52.818;6.516;2022-12-07T07:14:43;7.55;;;1.40;;
60722;SDS011;46574;52.818;6.516;2022-12-07T07:17:08;5.32;;;1.40;;
60722;SDS011;46574;52.818;6.516;2022-12-07T07:19:34;4.93;;;1.20;;
60722;SDS011;46574;52.818;6.516;2022-12-07T07:22:00;10.57;;;1.65;;
60722;SDS011;46574;52.818;6.516;2022-12-07T07:24:26;4.75;;;1.17;;
60722;SDS011;46574;52.818;6.516;2022-12-07T07:26:51;4.22;;;1.20;;
60722;SDS011;46574;52.818;6.516;2022-12-07T07:29:17;6.07;;;1.35;;
60722;SDS011;46574;52.818;6.516;2022-12-07T07:31:43;3.05;;;1.25;;
60722;SDS011;46574;52.818;6.516;2022-12-07T07:34:08;7.82;;;1.50;;
60722;SDS011;46574;52.818;6.516;2022-12-07T07:36:34;7.00;;;1.70;;
60722;SDS011;46574;52.818;6.516;2022-12-07T07:39:00;8.93;;;1.70;;
60722;SDS011;46574;52.818;6.516;2022-12-07T07:41:25;4.55;;;1.30;;
60722;SDS011;46574;52.818;6.516;2022-12-07T07:43:51;5.47;;;1.20;;
60722;SDS011;46574;52.818;6.516;2022-12-07T07:46:16;2.63;;;1.00;;
60722;SDS011;46574;52.818;6.516;2022-12-07T07:48:42;5.80;;;1.52;;
60722;SDS011;46574;52.818;6.516;2022-12-07T07:51:08;6.15;;;1.55;;
60722;SDS011;46574;52.818;6.516;2022-12-07T07:53:34;3.80;;;1.63;;
60722;SDS011;46574;52.818;6.516;2022-12-07T07:55:59;7.13;;;1.75;;
60722;SDS011;46574;52.818;6.516;2022-12-07T07:58:25;6.97;;;1.73;;
60722;SDS011;46574;52.818;6.516;2022-12-07T08:00:51;6.05;;;1.83;;
60722;SDS011;46574;52.818;6.516;2022-12-07T08:03:16;6.25;;;1.58;;
60722;SDS011;46574;52.818;6.516;2022-12-07T08:05:42;8.73;;;1.55;;
60722;SDS011;46574;52.818;6.516;2022-12-07T08:08:08;7.38;;;1.70;;
60722;SDS011;46574;52.818;6.516;2022-12-07T08:10:33;5.22;;;1.50;;
60722;SDS011;46574;52.818;6.516;2022-12-07T08:13:00;7.40;;;3.15;;
60722;SDS011;46574;52.818;6.516;2022-12-07T08:15:44;4.57;;;2.15;;
60722;SDS011;46574;52.818;6.516;2022-12-07T08:18:11;6.70;;;2.10;;
60722;SDS011;46574;52.818;6.516;2022-12-07T08:20:39;7.78;;;1.48;;
60722;SDS011;46574;52.818;6.516;2022-12-07T08:23:05;5.47;;;1.52;;
60722;SDS011;46574;52.818;6.516;2022-12-07T08:25:31;6.68;;;1.42;;
60722;SDS011;46574;52.818;6.516;2022-12-07T08:27:58;4.75;;;1.35;;
60722;SDS011;46574;52.818;6.516;2022-12-07T08:30:25;4.07;;;1.23;;
60722;SDS011;46574;52.818;6.516;2022-12-07T08:32:51;5.18;;;1.20;;
60722;SDS011;46574;52.818;6.516;2022-12-07T08:35:17;7.90;;;1.40;;
60722;SDS011;46574;52.818;6.516;2022-12-07T08:37:43;3.55;;;1.00;;
60722;SDS011;46574;52.818;6.516;2022-12-07T08:40:09;6.32;;;1.45;;
60722;SDS011;46574;52.818;6.516;2022-12-07T08:42:39;4.95;;;1.30;;
60722;SDS011;46574;52.818;6.516;2022-12-07T08:45:10;3.35;;;1.15;;
60722;SDS011;46574;52.818;6.516;2022-12-07T08:47:38;3.72;;;1.20;;
60722;SDS011;46574;52.818;6.516;2022-12-07T08:50:12;3.83;;;2.13;;
60722;SDS011;46574;52.818;6.516;2022-12-07T08:52:39;4.13;;;1.27;;
60722;SDS011;46574;52.818;6.516;2022-12-07T08:55:06;6.65;;;1.60;;
60722;SDS011;46574;52.818;6.516;2022-12-07T08:57:34;3.72;;;1.30;;
60722;SDS011;46574;52.818;6.516;2022-12-07T09:00:01;7.18;;;1.48;;
60722;SDS011;46574;52.818;6.516;2022-12-07T09:02:28;6.60;;;1.63;;
60722;SDS011;46574;52.818;6.516;2022-12-07T09:04:54;6.63;;;1.63;;
60722;SDS011;46574;52.818;6.516;2022-12-07T09:07:20;8.15;;;1.55;;
60722;SDS011;46574;52.818;6.516;2022-12-07T09:09:46;5.43;;;1.40;;
60722;SDS011;46574;52.818;6.516;2022-12-07T09:12:11;6.60;;;1.58;;
60722;SDS011;46574;52.818;6.516;2022-12-07T09:14:37;5.40;;;2.13;;
60722;SDS011;46574;52.818;6.516;2022-12-07T09:17:09;5.82;;;1.60;;
60722;SDS011;46574;52.818;6.516;2022-12-07T09:19:36;4.93;;;1.85;;
60722;SDS011;46574;52.818;6.516;2022-12-07T09:22:03;4.93;;;1.70;;
60722;SDS011;46574;52.818;6.516;2022-12-07T09:24:32;4.65;;;1.52;;
60722;SDS011;46574;52.818;6.516;2022-12-07T09:26:58;3.97;;;1.30;;
60722;SDS011;46574;52.818;6.516;2022-12-07T09:29:24;8.88;;;1.83;;
60722;SDS011;46574;52.818;6.516;2022-12-07T09:31:50;6.13;;;1.40;;
60722;SDS011;46574;52.818;6.516;2022-12-07T09:34:16;6.43;;;1.25;;
60722;SDS011;46574;52.818;6.516;2022-12-07T09:36:42;5.60;;;1.60;;
60722;SDS011;46574;52.818;6.516;2022-12-07T09:39:08;5.50;;;1.85;;
60722;SDS011;46574;52.818;6.516;2022-12-07T09:41:36;6.68;;;1.90;;
60722;SDS011;46574;52.818;6.516;2022-12-07T09:44:10;4.97;;;2.50;;
60722;SDS011;46574;52.818;6.516;2022-12-07T09:46:40;6.57;;;1.98;;
60722;SDS011;46574;52.818;6.516;2022-12-07T09:49:12;5.40;;;1.93;;
60722;SDS011;46574;52.818;6.516;2022-12-07T09:51:45;8.70;;;3.23;;
60722;SDS011;46574;52.818;6.516;2022-12-07T09:54:12;6.90;;;3.05;;
60722;SDS011;46574;52.818;6.516;2022-12-07T09:56:42;5.38;;;1.92;;
60722;SDS011;46574;52.818;6.516;2022-12-07T09:59:09;7.18;;;1.90;;
60722;SDS011;46574;52.818;6.516;2022-12-07T10:01:41;4.82;;;1.70;;
60722;SDS011;46574;52.818;6.516;2022-12-07T10:04:18;7.53;;;1.88;;
60722;SDS011;46574;52.818;6.516;2022-12-07T10:06:46;7.20;;;1.67;;
60722;SDS011;46574;52.818;6.516;2022-12-07T10:09:14;6.63;;;1.90;;
60722;SDS011;46574;52.818;6.516;2022-12-07T10:14:28;5.10;;;1.70;;
60722;SDS011;46574;52.818;6.516;2022-12-07T10:16:55;6.80;;;2.03;;
60722;SDS011;46574;52.818;6.516;2022-12-07T10:19:38;5.53;;;1.58;;
60722;SDS011;46574;52.818;6.516;2022-12-07T10:22:07;5.18;;;1.60;;
60722;SDS011;46574;52.818;6.516;2022-12-07T10:24:39;5.30;;;1.73;;
60722;SDS011;46574;52.818;6.516;2022-12-07T10:27:56;4.90;;;1.38;;
60722;SDS011;46574;52.818;6.516;2022-12-07T10:29:56;6.63;;;1.80;;
60722;SDS011;46574;52.818;6.516;2022-12-07T10:32:28;5.88;;;1.63;;
60722;SDS011;46574;52.818;6.516;2022-12-07T10:37:47;7.43;;;1.75;;
60722;SDS011;46574;52.818;6.516;2022-12-07T10:40:24;5.93;;;2.03;;
60722;SDS011;46574;52.818;6.516;2022-12-07T10:45:30;7.55;;;2.47;;
60722;SDS011;46574;52.818;6.516;2022-12-07T11:01:47;6.15;;;1.65;;
60722;SDS011;46574;52.818;6.516;2022-12-07T11:06:58;7.93;;;1.65;;
60722;SDS011;46574;52.818;6.516;2022-12-07T11:12:20;6.47;;;2.13;;
60722;SDS011;46574;52.818;6.516;2022-12-07T11:14:56;4.63;;;1.67;;
60722;SDS011;46574;52.818;6.516;2022-12-07T11:17:42;3.92;;;1.50;;
60722;SDS011;46574;52.818;6.516;2022-12-07T11:23:20;4.00;;;1.45;;
60722;SDS011;46574;52.818;6.516;2022-12-07T11:26:07;5.55;;;1.70;;
60722;SDS011;46574;52.818;6.516;2022-12-07T11:28:44;4.05;;;1.40;;
60722;SDS011;46574;52.818;6.516;2022-12-07T11:31:33;4.10;;;1.45;;
60722;SDS011;46574;52.818;6.516;2022-12-07T11:36:56;6.18;;;1.20;;
60722;SDS011;46574;52.818;6.516;2022-12-07T11:42:00;7.75;;;1.50;;
60722;SDS011;46574;52.818;6.516;2022-12-07T11:44:44;5.75;;;1.70;;
60722;SDS011;46574;52.818;6.516;2022-12-07T11:47:25;5.72;;;1.60;;
60722;SDS011;46574;52.818;6.516;2022-12-07T11:50:20;6.05;;;1.52;;
60722;SDS011;46574;52.818;6.516;2022-12-07T11:52:56;8.13;;;1.33;;
60722;SDS011;46574;52.818;6.516;2022-12-07T11:55:38;5.32;;;1.33;;
60722;SDS011;46574;52.818;6.516;2022-12-07T11:58:20;4.95;;;1.50;;
60722;SDS011;46574;52.818;6.516;2022-12-07T12:03:44;3.72;;;1.27;;
60722;SDS011;46574;52.818;6.516;2022-12-07T12:06:12;3.55;;;1.58;;
60722;SDS011;46574;52.818;6.516;2022-12-07T12:08:39;6.38;;;1.80;;
60722;SDS011;46574;52.818;6.516;2022-12-07T12:14:19;8.30;;;1.83;;
60722;SDS011;46574;52.818;6.516;2022-12-07T12:22:58;9.13;;;2.42;;
60722;SDS011;46574;52.818;6.516;2022-12-07T12:25:38;7.68;;;2.13;;
60722;SDS011;46574;52.818;6.516;2022-12-07T12:31:05;4.05;;;1.70;;
60722;SDS011;46574;52.818;6.516;2022-12-07T12:33:43;4.60;;;1.40;;
60722;SDS011;46574;52.818;6.516;2022-12-07T12:49:34;4.85;;;1.58;;
60722;SDS011;46574;52.818;6.516;2022-12-07T12:54:56;4.72;;;1.27;;
60722;SDS011;46574;52.818;6.516;2022-12-07T12:57:26;5.93;;;1.42;;
60722;SDS011;46574;52.818;6.516;2022-12-07T13:02:21;2.88;;;1.15;;
60722;SDS011;46574;52.818;6.516;2022-12-07T13:12:57;3.72;;;0.80;;
60722;SDS011;46574;52.818;6.516;2022-12-07T13:15:37;3.88;;;1.00;;
60722;SDS011;46574;52.818;6.516;2022-12-07T13:18:24;3.90;;;1.02;;
60722;SDS011;46574;52.818;6.516;2022-12-07T13:20:57;2.10;;;0.50;;
60722;SDS011;46574;52.818;6.516;2022-12-07T13:23:36;2.08;;;0.80;;
60722;SDS011;46574;52.818;6.516;2022-12-07T13:28:52;1.70;;;0.63;;
60722;SDS011;46574;52.818;6.516;2022-12-07T13:31:42;3.97;;;0.88;;
60722;SDS011;46574;52.818;6.516;2022-12-07T13:39:46;2.63;;;0.70;;
60722;SDS011;46574;52.818;6.516;2022-12-07T13:42:26;2.97;;;0.73;;
60722;SDS011;46574;52.818;6.516;2022-12-07T13:44:57;4.22;;;0.90;;
60722;SDS011;46574;52.818;6.516;2022-12-07T13:47:39;4.97;;;0.70;;
60722;SDS011;46574;52.818;6.516;2022-12-07T13:52:47;2.55;;;1.38;;
60722;SDS011;46574;52.818;6.516;2022-12-07T13:55:14;4.13;;;0.95;;
60722;SDS011;46574;52.818;6.516;2022-12-07T13:57:44;2.90;;;0.95;;
60722;SDS011;46574;52.818;6.516;2022-12-07T14:00:18;4.82;;;0.90;;
60722;SDS011;46574;52.818;6.516;2022-12-07T14:03:00;2.88;;;0.80;;
60722;SDS011;46574;52.818;6.516;2022-12-07T14:05:29;2.28;;;1.02;;
60722;SDS011;46574;52.818;6.516;2022-12-07T14:08:00;2.40;;;0.90;;
60722;SDS011;46574;52.818;6.516;2022-12-07T14:10:56;3.63;;;0.80;;
60722;SDS011;46574;52.818;6.516;2022-12-07T14:13:37;4.72;;;1.17;;
60722;SDS011;46574;52.818;6.516;2022-12-07T14:16:28;3.25;;;0.90;;
60722;SDS011;46574;52.818;6.516;2022-12-07T14:18:57;4.25;;;0.98;;
60722;SDS011;46574;52.818;6.516;2022-12-07T14:21:26;2.17;;;0.70;;
60722;SDS011;46574;52.818;6.516;2022-12-07T14:26:37;5.07;;;1.30;;
60722;SDS011;46574;52.818;6.516;2022-12-07T14:31:53;4.93;;;1.02;;
60722;SDS011;46574;52.818;6.516;2022-12-07T14:34:20;4.70;;;1.10;;
60722;SDS011;46574;52.818;6.516;2022-12-07T14:36:46;2.40;;;0.93;;
60722;SDS011;46574;52.818;6.516;2022-12-07T14:39:12;3.72;;;1.25;;
60722;SDS011;46574;52.818;6.516;2022-12-07T14:41:38;2.80;;;1.00;;
60722;SDS011;46574;52.818;6.516;2022-12-07T14:44:16;3.58;;;1.35;;
60722;SDS011;46574;52.818;6.516;2022-12-07T14:46:43;4.45;;;1.20;;
60722;SDS011;46574;52.818;6.516;2022-12-07T14:49:08;4.82;;;1.42;;
60722;SDS011;46574;52.818;6.516;2022-12-07T14:51:35;4.40;;;1.08;;
60722;SDS011;46574;52.818;6.516;2022-12-07T14:54:02;3.30;;;1.00;;
60722;SDS011;46574;52.818;6.516;2022-12-07T14:56:30;2.55;;;0.90;;
60722;SDS011;46574;52.818;6.516;2022-12-07T14:58:55;3.75;;;1.10;;
60722;SDS011;46574;52.818;6.516;2022-12-07T15:01:21;4.88;;;1.55;;
60722;SDS011;46574;52.818;6.516;2022-12-07T15:03:47;2.47;;;0.98;;
60722;SDS011;46574;52.818;6.516;2022-12-07T15:06:13;4.00;;;0.90;;
60722;SDS011;46574;52.818;6.516;2022-12-07T15:08:40;3.38;;;0.85;;
60722;SDS011;46574;52.818;6.516;2022-12-07T15:11:09;4.35;;;1.17;;
60722;SDS011;46574;52.818;6.516;2022-12-07T15:13:39;4.32;;;1.50;;
60722;SDS011;46574;52.818;6.516;2022-12-07T15:16:23;2.83;;;0.82;;
60722;SDS011;46574;52.818;6.516;2022-12-07T15:18:49;3.03;;;1.00;;
60722;SDS011;46574;52.818;6.516;2022-12-07T15:21:15;5.03;;;1.30;;
60722;SDS011;46574;52.818;6.516;2022-12-07T15:23:41;6.80;;;1.10;;
60722;SDS011;46574;52.818;6.516;2022-12-07T15:26:07;4.38;;;1.00;;
60722;SDS011;46574;52.818;6.516;2022-12-07T15:28:33;4.20;;;1.48;;
60722;SDS011;46574;52.818;6.516;2022-12-07T15:30:59;3.08;;;1.20;;
60722;SDS011;46574;52.818;6.516;2022-12-07T15:33:24;3.53;;;1.23;;
60722;SDS011;46574;52.818;6.516;2022-12-07T15:35:50;4.25;;;1.10;;
60722;SDS011;46574;52.818;6.516;2022-12-07T15:38:16;6.43;;;1.30;;
60722;SDS011;46574;52.818;6.516;2022-12-07T15:40:41;6.97;;;1.52;;
60722;SDS011;46574;52.818;6.516;2022-12-07T15:43:10;2.55;;;1.00;;
60722;SDS011;46574;52.818;6.516;2022-12-07T15:45:56;4.95;;;1.40;;
60722;SDS011;46574;52.818;6.516;2022-12-07T15:48:22;4.00;;;1.33;;
60722;SDS011;46574;52.818;6.516;2022-12-07T15:50:47;2.97;;;1.20;;
60722;SDS011;46574;52.818;6.516;2022-12-07T15:53:13;4.68;;;0.90;;
60722;SDS011;46574;52.818;6.516;2022-12-07T15:55:39;4.32;;;1.35;;
60722;SDS011;46574;52.818;6.516;2022-12-07T15:58:05;6.18;;;1.27;;
60722;SDS011;46574;52.818;6.516;2022-12-07T16:00:31;3.08;;;0.80;;
60722;SDS011;46574;52.818;6.516;2022-12-07T16:02:56;5.05;;;1.10;;
60722;SDS011;46574;52.818;6.516;2022-12-07T16:05:22;2.45;;;0.90;;
60722;SDS011;46574;52.818;6.516;2022-12-07T16:07:48;3.20;;;0.82;;
60722;SDS011;46574;52.818;6.516;2022-12-07T16:10:13;2.20;;;0.82;;
60722;SDS011;46574;52.818;6.516;2022-12-07T16:12:39;3.53;;;1.15;;
60722;SDS011;46574;52.818;6.516;2022-12-07T16:15:05;3.17;;;0.80;;
60722;SDS011;46574;52.818;6.516;2022-12-07T16:17:31;3.05;;;0.88;;
60722;SDS011;46574;52.818;6.516;2022-12-07T16:19:57;3.88;;;0.80;;
60722;SDS011;46574;52.818;6.516;2022-12-07T16:22:23;3.10;;;1.10;;
60722;SDS011;46574;52.818;6.516;2022-12-07T16:24:48;3.67;;;1.30;;
60722;SDS011;46574;52.818;6.516;2022-12-07T16:27:14;3.65;;;1.08;;
60722;SDS011;46574;52.818;6.516;2022-12-07T16:29:40;2.85;;;1.13;;
60722;SDS011;46574;52.818;6.516;2022-12-07T16:32:05;4.50;;;1.00;;
60722;SDS011;46574;52.818;6.516;2022-12-07T16:34:31;2.80;;;1.10;;
60722;SDS011;46574;52.818;6.516;2022-12-07T16:36:57;2.80;;;1.00;;
60722;SDS011;46574;52.818;6.516;2022-12-07T16:39:22;3.40;;;1.30;;
60722;SDS011;46574;52.818;6.516;2022-12-07T16:41:49;2.88;;;1.20;;
60722;SDS011;46574;52.818;6.516;2022-12-07T16:44:15;3.08;;;1.27;;
60722;SDS011;46574;52.818;6.516;2022-12-07T16:46:41;3.30;;;1.27;;
60722;SDS011;46574;52.818;6.516;2022-12-07T16:49:11;5.47;;;1.40;;
60722;SDS011;46574;52.818;6.516;2022-12-07T16:51:40;3.42;;;1.63;;
60722;SDS011;46574;52.818;6.516;2022-12-07T16:54:09;5.03;;;1.60;;
60722;SDS011;46574;52.818;6.516;2022-12-07T16:56:36;3.08;;;1.60;;
60722;SDS011;46574;52.818;6.516;2022-12-07T16:59:01;2.22;;;1.48;;